Time;durP1;ratioP1;P1;durP2;ratioP2;P2;SDS_P1;SDS_P2;PMS_P1;PMS_P2;Temp;Humidity;BMP_temperature;BMP_pressure;BME280_temperature;BME280_humidity;BME280_pressure;Samples;Min_cycle;Max_cycle;Signal;HPM_P1;HPM_P2
2022/01/18 00:00:44;;;;;;;53.95;35.90;;;;;;;;;;6184782;23;20001;-76
2022/01/18 00:03:10;;;;;;;43.80;31.55;;;;;;;;;;6185140;23;20097;-77
2022/01/18 00:05:37;;;;;;;47.60;33.03;;;;;;;;;;6184910;23;20001;-77
2022/01/18 00:08:03;;;;;;;44.22;31.10;;;;;;;;;;6184712;23;20443;-77
2022/01/18 00:10:31;;;;;;;39.88;27.77;;;;;;;;;;6158178;23;20408;-76
2022/01/18 00:18:18;;;;;;;101.47;63.85;;;;;;;;;;6185003;23;20507;-77
2022/01/18 00:23:31;;;;;;;135.23;81.97;;;;;;;;;;6184420;23;20020;-76
2022/01/18 00:25:58;;;;;;;152.65;88.97;;;;;;;;;;6184760;23;20012;-77
2022/01/18 00:28:25;;;;;;;95.40;60.10;;;;;;;;;;6184900;23;20009;-77
2022/01/18 00:33:26;;;;;;;59.90;38.03;;;;;;;;;;6194278;23;20100;-77
2022/01/18 00:36:00;;;;;;;46.80;32.88;;;;;;;;;;6184593;23;20404;-76
2022/01/18 00:40:55;;;;;;;40.50;26.15;;;;;;;;;;6187875;23;20028;-77
2022/01/18 00:43:21;;;;;;;32.70;22.77;;;;;;;;;;6183956;23;20111;-77
2022/01/18 00:45:53;;;;;;;25.80;17.05;;;;;;;;;;6184694;23;20001;-77
2022/01/18 00:48:19;;;;;;;21.67;14.80;;;;;;;;;;6158033;23;20008;-78
2022/01/18 00:50:46;;;;;;;21.48;12.82;;;;;;;;;;6184541;23;20067;-77
2022/01/18 00:53:15;;;;;;;24.05;16.50;;;;;;;;;;6184123;23;20320;-77
2022/01/18 00:56:05;;;;;;;23.75;16.38;;;;;;;;;;6184289;23;20005;-77
2022/01/18 00:58:31;;;;;;;16.90;10.27;;;;;;;;;;6184312;23;20426;-77
2022/01/18 01:00:57;;;;;;;16.35;10.27;;;;;;;;;;6184218;23;20155;-77
2022/01/18 01:03:24;;;;;;;15.25;10.15;;;;;;;;;;6184433;23;20001;-77
2022/01/18 01:05:50;;;;;;;13.75;9.25;;;;;;;;;;6184061;23;20459;-77
2022/01/18 01:08:16;;;;;;;13.27;9.20;;;;;;;;;;6184421;23;20001;-78
2022/01/18 01:10:42;;;;;;;15.40;10.32;;;;;;;;;;6184220;23;19997;-78
2022/01/18 01:13:09;;;;;;;18.38;11.18;;;;;;;;;;6184509;23;20012;-78
2022/01/18 01:15:51;;;;;;;16.92;11.07;;;;;;;;;;6184585;23;20417;-79
2022/01/18 01:34:55;;;;;;;11.50;7.10;;;;;;;;;;6186475;23;20359;-77
2022/01/18 01:42:59;;;;;;;11.38;6.88;;;;;;;;;;6185845;23;20487;-77
2022/01/18 01:45:30;;;;;;;12.40;7.40;;;;;;;;;;6185717;23;20051;-78
2022/01/18 01:48:00;;;;;;;10.43;6.63;;;;;;;;;;6185856;23;20048;-78
2022/01/18 01:50:40;;;;;;;8.85;6.90;;;;;;;;;;6185340;23;20005;-76
2022/01/18 01:53:06;;;;;;;10.63;5.78;;;;;;;;;;6185837;23;20032;-75
2022/01/18 01:55:32;;;;;;;7.35;5.25;;;;;;;;;;6185991;23;19997;-75
2022/01/18 01:57:58;;;;;;;8.82;5.30;;;;;;;;;;6185720;23;20072;-76
2022/01/18 02:00:24;;;;;;;7.00;4.70;;;;;;;;;;6185397;23;19997;-75
2022/01/18 02:02:51;;;;;;;7.78;5.18;;;;;;;;;;6185669;23;20001;-78
2022/01/18 02:05:17;;;;;;;8.30;4.88;;;;;;;;;;6185684;23;20045;-77
2022/01/18 02:07:43;;;;;;;26.45;17.90;;;;;;;;;;6185405;23;20051;-77
2022/01/18 02:10:10;;;;;;;6.82;4.50;;;;;;;;;;6185776;23;20310;-76
2022/01/18 02:12:37;;;;;;;8.93;4.50;;;;;;;;;;6185629;23;19997;-77
2022/01/18 02:15:11;;;;;;;4.10;2.85;;;;;;;;;;6185359;23;20005;-76
2022/01/18 02:23:28;;;;;;;5.00;2.55;;;;;;;;;;6184778;23;20064;-76
2022/01/18 02:25:57;;;;;;;4.53;1.95;;;;;;;;;;6185572;23;20013;-76
2022/01/18 02:28:24;;;;;;;4.20;1.92;;;;;;;;;;6185194;23;20001;-76
2022/01/18 02:30:51;;;;;;;5.07;1.80;;;;;;;;;;6185183;23;20068;-76
2022/01/18 02:33:17;;;;;;;3.67;1.70;;;;;;;;;;6184897;23;20067;-78
2022/01/18 02:35:47;;;;;;;3.22;1.80;;;;;;;;;;6184371;23;20001;-76
2022/01/18 02:38:13;;;;;;;4.38;2.20;;;;;;;;;;6185029;23;20020;-76
2022/01/18 02:40:41;;;;;;;5.15;2.88;;;;;;;;;;6184687;23;20057;-76
2022/01/18 02:45:54;;;;;;;5.35;2.70;;;;;;;;;;6185226;23;20016;-77
2022/01/18 02:48:20;;;;;;;4.88;3.45;;;;;;;;;;6159237;23;20001;-76
2022/01/18 02:50:46;;;;;;;8.85;4.15;;;;;;;;;;6186066;23;19993;-76
2022/01/18 02:53:19;;;;;;;7.32;4.10;;;;;;;;;;6158403;23;20009;-76
2022/01/18 02:55:51;;;;;;;5.47;3.55;;;;;;;;;;6185066;23;20032;-76
2022/01/18 02:58:25;;;;;;;5.05;2.60;;;;;;;;;;6184792;23;20328;-75
2022/01/18 03:03:30;;;;;;;4.10;2.75;;;;;;;;;;6195212;23;20016;-76
2022/01/18 03:05:57;;;;;;;5.05;2.50;;;;;;;;;;6184552;23;20372;-76
2022/01/18 03:08:24;;;;;;;3.13;2.30;;;;;;;;;;6184966;23;20001;-76
2022/01/18 03:10:50;;;;;;;3.88;2.40;;;;;;;;;;6184542;23;20001;-76
2022/01/18 03:13:18;;;;;;;3.55;2.22;;;;;;;;;;6184552;23;20005;-76
2022/01/18 03:15:44;;;;;;;3.40;2.05;;;;;;;;;;6184979;23;20106;-75
2022/01/18 03:18:10;;;;;;;3.50;2.10;;;;;;;;;;6184907;23;20045;-76
2022/01/18 03:20:39;;;;;;;3.95;1.90;;;;;;;;;;6185021;23;20029;-76
2022/01/18 03:23:17;;;;;;;3.72;2.10;;;;;;;;;;6184592;23;20001;-75
2022/01/18 03:25:58;;;;;;;3.05;1.58;;;;;;;;;;6184452;23;20029;-77
2022/01/18 03:28:25;;;;;;;5.20;2.15;;;;;;;;;;6184747;23;20056;-75
2022/01/18 03:30:54;;;;;;;3.63;1.50;;;;;;;;;;6184512;23;20005;-75
2022/01/18 03:33:21;;;;;;;3.42;1.33;;;;;;;;;;6184196;23;20033;-75
2022/01/18 03:35:49;;;;;;;2.30;1.38;;;;;;;;;;6184874;23;20059;-75
2022/01/18 03:38:19;;;;;;;2.38;1.50;;;;;;;;;;6184770;23;20031;-77
2022/01/18 03:40:45;;;;;;;1.90;0.80;;;;;;;;;;6184841;23;20020;-75
2022/01/18 03:43:13;;;;;;;2.78;1.40;;;;;;;;;;6184467;23;20001;-75
2022/01/18 03:45:43;;;;;;;3.28;1.35;;;;;;;;;;6184563;23;20008;-76
2022/01/18 03:48:14;;;;;;;2.78;1.20;;;;;;;;;;6184499;23;20001;-75
2022/01/18 03:50:43;;;;;;;3.42;1.25;;;;;;;;;;6183413;23;20033;-75
2022/01/18 03:53:12;;;;;;;3.03;1.23;;;;;;;;;;6184397;23;20009;-76
2022/01/18 03:55:38;;;;;;;3.83;1.90;;;;;;;;;;6184477;23;20056;-76
2022/01/18 03:58:05;;;;;;;4.15;1.55;;;;;;;;;;6184443;23;20001;-76
2022/01/18 04:00:32;;;;;;;3.85;1.73;;;;;;;;;;6184188;23;20005;-78
2022/01/18 04:03:00;;;;;;;1.25;0.93;;;;;;;;;;6158894;23;20337;-76
2022/01/18 04:05:32;;;;;;;3.72;1.58;;;;;;;;;;6184092;23;20008;-75
2022/01/18 04:07:58;;;;;;;3.35;1.58;;;;;;;;;;6184170;23;20064;-76
2022/01/18 04:10:24;;;;;;;3.50;1.42;;;;;;;;;;6184032;23;20449;-76
2022/01/18 04:12:51;;;;;;;2.45;0.90;;;;;;;;;;6184319;23;20005;-76
2022/01/18 04:15:20;;;;;;;2.63;0.77;;;;;;;;;;6184205;23;19993;-76
2022/01/18 04:26:56;;;;;;;1.63;0.82;;;;;;;;;;6184423;23;20349;-75
2022/01/18 04:28:54;;;;;;;3.40;1.55;;;;;;;;;;6184733;23;20377;-75
2022/01/18 04:31:20;;;;;;;3.72;1.55;;;;;;;;;;6183800;23;20009;-76
2022/01/18 04:33:47;;;;;;;4.10;1.90;;;;;;;;;;6184207;23;20009;-75
2022/01/18 04:36:13;;;;;;;1.77;0.80;;;;;;;;;;6184287;23;19997;-76
2022/01/18 04:38:39;;;;;;;2.25;1.00;;;;;;;;;;6184488;23;20005;-76
2022/01/18 04:41:09;;;;;;;4.68;1.40;;;;;;;;;;6183812;23;20028;-76
2022/01/18 04:48:49;;;;;;;3.38;1.90;;;;;;;;;;6184047;23;20012;-76
2022/01/18 04:51:18;;;;;;;2.70;1.42;;;;;;;;;;6184124;23;20007;-76
2022/01/18 04:53:51;;;;;;;4.45;1.83;;;;;;;;;;6183633;23;20017;-76
2022/01/18 04:59:08;;;;;;;2.90;1.40;;;;;;;;;;6183620;23;20380;-76
2022/01/18 05:01:34;;;;;;;5.68;1.85;;;;;;;;;;6184048;23;20298;-76
2022/01/18 05:04:00;;;;;;;4.10;1.88;;;;;;;;;;6183930;23;19997;-76
2022/01/18 05:06:29;;;;;;;4.97;2.50;;;;;;;;;;6184032;23;20009;-75
2022/01/18 05:08:56;;;;;;;3.83;1.42;;;;;;;;;;6158107;23;20113;-76
2022/01/18 05:11:25;;;;;;;5.30;2.35;;;;;;;;;;6157985;23;20318;-76
2022/01/18 05:16:46;;;;;;;7.45;2.92;;;;;;;;;;6194219;23;20032;-76
2022/01/18 05:22:58;;;;;;;4.50;1.33;;;;;;;;;;6194907;23;20036;-75
2022/01/18 05:24:44;;;;;;;4.07;2.00;;;;;;;;;;6183475;23;20009;-76
2022/01/18 05:27:10;;;;;;;2.33;1.25;;;;;;;;;;6183856;23;20437;-75
2022/01/18 05:29:36;;;;;;;2.97;1.42;;;;;;;;;;6183689;23;20009;-76
2022/01/18 05:32:02;;;;;;;4.05;1.35;;;;;;;;;;6183939;23;20005;-76
2022/01/18 05:34:28;;;;;;;3.58;1.70;;;;;;;;;;6184069;23;20079;-76
2022/01/18 05:36:57;;;;;;;5.90;1.67;;;;;;;;;;6183885;23;19998;-75
2022/01/18 05:39:23;;;;;;;3.15;1.80;;;;;;;;;;6183920;23;20001;-76
2022/01/18 05:41:52;;;;;;;2.03;0.80;;;;;;;;;;6184216;23;20008;-77
2022/01/18 05:44:18;;;;;;;4.25;2.08;;;;;;;;;;6183990;23;20005;-75
2022/01/18 05:46:44;;;;;;;2.30;1.10;;;;;;;;;;6183998;23;20036;-77
2022/01/18 05:49:10;;;;;;;2.50;1.00;;;;;;;;;;6183841;23;20016;-76
2022/01/18 05:51:37;;;;;;;2.28;0.88;;;;;;;;;;6183686;23;20080;-76
2022/01/18 05:54:04;;;;;;;2.67;1.00;;;;;;;;;;6183822;23;20483;-77
2022/01/18 05:56:30;;;;;;;4.35;1.52;;;;;;;;;;6184317;23;20001;-76
2022/01/18 05:59:02;;;;;;;3.65;2.00;;;;;;;;;;6183714;23;20028;-76
2022/01/18 06:01:33;;;;;;;1.60;0.80;;;;;;;;;;6158020;23;20001;-76
2022/01/18 06:09:10;;;;;;;4.05;1.83;;;;;;;;;;6183719;23;20344;-76
2022/01/18 06:11:36;;;;;;;3.15;1.48;;;;;;;;;;6184844;23;20008;-76
2022/01/18 06:14:03;;;;;;;3.55;1.30;;;;;;;;;;6185639;23;20055;-77
2022/01/18 06:16:30;;;;;;;3.10;1.05;;;;;;;;;;6185560;23;20440;-77
2022/01/18 06:18:58;;;;;;;3.15;1.20;;;;;;;;;;6185612;23;20035;-75
2022/01/18 06:21:25;;;;;;;4.28;1.60;;;;;;;;;;6184204;23;19997;-76
2022/01/18 06:23:51;;;;;;;2.15;1.13;;;;;;;;;;6180806;23;20384;-76
2022/01/18 06:26:17;;;;;;;4.18;1.52;;;;;;;;;;6184267;23;20001;-76
2022/01/18 06:28:44;;;;;;;5.85;1.98;;;;;;;;;;6182618;23;20037;-77
2022/01/18 06:31:12;;;;;;;4.68;1.38;;;;;;;;;;6183417;23;20048;-75
2022/01/18 06:33:44;;;;;;;5.53;2.20;;;;;;;;;;6184580;23;20013;-80
2022/01/18 06:36:10;;;;;;;3.35;1.30;;;;;;;;;;6182886;23;20317;-75
2022/01/18 06:38:36;;;;;;;5.57;2.00;;;;;;;;;;6183048;23;20360;-77
2022/01/18 06:41:04;;;;;;;4.88;2.45;;;;;;;;;;6155481;23;20025;-77
2022/01/18 06:43:48;;;;;;;3.15;1.48;;;;;;;;;;6182327;23;20036;-77
2022/01/18 06:46:14;;;;;;;6.20;3.80;;;;;;;;;;6183257;23;20012;-76
2022/01/18 06:48:47;;;;;;;11.30;7.10;;;;;;;;;;6184938;23;20001;-77
2022/01/18 06:51:33;;;;;;;10.00;4.93;;;;;;;;;;6183388;23;20079;-77
2022/01/18 06:54:05;;;;;;;11.10;5.82;;;;;;;;;;6183939;23;20008;-77
2022/01/18 06:56:31;;;;;;;14.95;6.75;;;;;;;;;;6157822;23;20009;-77
2022/01/18 06:58:57;;;;;;;11.00;5.65;;;;;;;;;;6183885;23;20433;-77
2022/01/18 07:01:23;;;;;;;7.43;3.72;;;;;;;;;;6182744;23;20024;-71
2022/01/18 07:03:49;;;;;;;16.52;6.85;;;;;;;;;;6183571;23;20009;-79
2022/01/18 07:06:33;;;;;;;;;;;;;;;;;;;;;
2022/01/18 07:09:00;;;;;;;12.18;6.57;;;;;;;;;;6183482;23;20092;-78
2022/01/18 07:11:29;;;;;;;13.13;6.82;;;;;;;;;;6183888;23;20001;-78
2022/01/18 07:13:55;;;;;;;11.93;5.30;;;;;;;;;;6183805;23;20060;-77
2022/01/18 07:16:21;;;;;;;8.00;3.22;;;;;;;;;;6183707;23;20072;-78
2022/01/18 07:18:47;;;;;;;8.55;1.70;;;;;;;;;;6183904;23;20001;-77
2022/01/18 07:21:13;;;;;;;8.23;4.88;;;;;;;;;;6182840;23;20005;-77
2022/01/18 07:23:40;;;;;;;19.63;9.75;;;;;;;;;;6157301;23;20297;-77
2022/01/18 07:26:12;;;;;;;10.57;5.18;;;;;;;;;;6183497;23;20008;-76
2022/01/18 07:28:38;;;;;;;10.15;5.28;;;;;;;;;;6183645;23;20447;-77
2022/01/18 07:31:04;;;;;;;7.32;2.85;;;;;;;;;;6183088;23;20041;-77
2022/01/18 07:33:31;;;;;;;5.28;3.20;;;;;;;;;;6183557;23;20385;-85
2022/01/18 07:35:57;;;;;;;3.17;1.08;;;;;;;;;;6183733;23;20004;-77
2022/01/18 07:38:23;;;;;;;2.90;1.10;;;;;;;;;;6183635;23;20437;-77
2022/01/18 07:40:53;;;;;;;6.18;2.70;;;;;;;;;;6165957;23;20017;-78
2022/01/18 07:43:20;;;;;;;7.60;3.70;;;;;;;;;;6153933;23;20040;-79
2022/01/18 07:45:49;;;;;;;4.20;2.63;;;;;;;;;;6127950;23;20007;-78
2022/01/18 07:48:17;;;;;;;4.97;2.70;;;;;;;;;;6153286;23;20437;-76
2022/01/18 07:50:43;;;;;;;9.55;4.97;;;;;;;;;;6154034;23;20028;-77
2022/01/18 07:53:11;;;;;;;4.88;3.70;;;;;;;;;;6153325;23;20056;-77
2022/01/18 07:55:37;;;;;;;11.82;4.95;;;;;;;;;;6153477;23;20005;-75
2022/01/18 07:58:03;;;;;;;9.02;4.97;;;;;;;;;;6153900;23;20033;-76
2022/01/18 08:00:29;;;;;;;10.50;6.15;;;;;;;;;;6153154;23;20386;-75
2022/01/18 08:02:58;;;;;;;7.07;3.60;;;;;;;;;;6127270;23;20013;-79
2022/01/18 08:05:24;;;;;;;14.18;5.35;;;;;;;;;;6153149;23;20072;-76
2022/01/18 08:07:50;;;;;;;9.57;5.03;;;;;;;;;;6127808;23;20002;-77
2022/01/18 08:10:19;;;;;;;9.75;4.78;;;;;;;;;;6152904;23;20365;-77
2022/01/18 08:12:46;;;;;;;10.02;6.68;;;;;;;;;;6153184;23;20421;-77
2022/01/18 08:15:18;;;;;;;10.07;5.93;;;;;;;;;;6152201;23;20025;-77
2022/01/18 08:17:50;;;;;;;8.63;5.07;;;;;;;;;;6153597;23;20005;-79
2022/01/18 08:20:16;;;;;;;6.53;3.83;;;;;;;;;;6153608;23;20005;-81
2022/01/18 08:22:46;;;;;;;6.03;3.92;;;;;;;;;;6153648;23;20005;-79
2022/01/18 08:25:17;;;;;;;5.60;2.60;;;;;;;;;;6153587;23;19997;-81
2022/01/18 08:27:46;;;;;;;7.47;4.55;;;;;;;;;;6153226;23;20080;-80
2022/01/18 08:30:13;;;;;;;5.57;3.00;;;;;;;;;;6152996;23;20072;-77
2022/01/18 08:32:39;;;;;;;12.52;5.60;;;;;;;;;;6152543;23;20010;-76
2022/01/18 08:35:10;;;;;;;10.93;4.85;;;;;;;;;;6152899;23;20132;-79
2022/01/18 08:37:39;;;;;;;5.97;3.00;;;;;;;;;;6152904;23;20010;-76
2022/01/18 08:40:08;;;;;;;11.90;5.38;;;;;;;;;;6139781;23;20013;-78
2022/01/18 08:42:36;;;;;;;8.35;4.30;;;;;;;;;;6182853;23;20084;-77
2022/01/18 08:45:07;;;;;;;7.07;3.53;;;;;;;;;;6183395;23;20051;-77
2022/01/18 08:47:33;;;;;;;8.57;4.88;;;;;;;;;;6180916;23;20083;-77
2022/01/18 08:49:59;;;;;;;7.22;4.22;;;;;;;;;;6183114;23;20039;-77
2022/01/18 08:52:28;;;;;;;6.13;3.25;;;;;;;;;;6182953;23;20009;-78
2022/01/18 08:54:54;;;;;;;6.90;3.90;;;;;;;;;;6183299;23;20013;-77
2022/01/18 08:57:20;;;;;;;5.40;1.80;;;;;;;;;;6183266;23;20010;-76
2022/01/18 08:59:48;;;;;;;6.38;3.60;;;;;;;;;;6183039;23;20421;-78
2022/01/18 09:02:15;;;;;;;5.70;3.55;;;;;;;;;;6182570;23;20433;-78
2022/01/18 09:04:45;;;;;;;14.30;7.55;;;;;;;;;;6182755;23;20052;-76
2022/01/18 09:07:11;;;;;;;13.13;7.65;;;;;;;;;;6183094;23;20009;-79
2022/01/18 09:09:39;;;;;;;11.40;5.38;;;;;;;;;;6182995;23;20005;-77
2022/01/18 09:12:06;;;;;;;6.38;3.08;;;;;;;;;;6183208;23;20013;-81
2022/01/18 09:14:32;;;;;;;8.00;3.42;;;;;;;;;;6181078;23;20002;-76
2022/01/18 09:16:58;;;;;;;5.40;3.30;;;;;;;;;;6182828;23;20005;-79
2022/01/18 09:19:24;;;;;;;7.97;3.83;;;;;;;;;;6181330;23;20009;-76
2022/01/18 09:21:50;;;;;;;6.80;1.88;;;;;;;;;;6183152;23;20417;-77
2022/01/18 09:24:20;;;;;;;4.35;2.35;;;;;;;;;;6180076;23;20005;-79
2022/01/18 09:26:46;;;;;;;10.55;5.90;;;;;;;;;;6180820;23;20092;-79
2022/01/18 09:29:14;;;;;;;8.40;3.40;;;;;;;;;;6183735;23;20092;-81
2022/01/18 09:31:42;;;;;;;9.25;3.78;;;;;;;;;;6183373;23;20016;-77
2022/01/18 09:34:09;;;;;;;8.05;3.88;;;;;;;;;;6183661;23;20083;-78
2022/01/18 09:36:38;;;;;;;6.28;4.78;;;;;;;;;;6182653;23;19997;-79
2022/01/18 09:39:07;;;;;;;5.85;2.70;;;;;;;;;;6182981;23;20322;-78
2022/01/18 09:41:38;;;;;;;7.00;2.60;;;;;;;;;;6155823;23;20010;-79
2022/01/18 09:44:08;;;;;;;8.10;3.92;;;;;;;;;;6152772;23;20006;-78
2022/01/18 09:46:36;;;;;;;4.80;2.10;;;;;;;;;;6152546;23;20005;-77
2022/01/18 09:49:05;;;;;;;5.32;2.70;;;;;;;;;;6155021;23;20079;-78
2022/01/18 09:51:31;;;;;;;9.18;5.15;;;;;;;;;;6155565;23;20052;-79
2022/01/18 09:54:00;;;;;;;11.00;5.90;;;;;;;;;;6155236;23;20064;-79
2022/01/18 09:56:26;;;;;;;9.02;4.38;;;;;;;;;;6155274;23;20421;-80
2022/01/18 09:58:57;;;;;;;6.72;3.35;;;;;;;;;;6154375;23;20020;-79
2022/01/18 10:01:31;;;;;;;8.65;3.67;;;;;;;;;;6154855;23;20429;-82
2022/01/18 10:04:16;;;;;;;4.90;2.45;;;;;;;;;;6154754;23;20834;-78
2022/01/18 10:06:43;;;;;;;6.10;2.90;;;;;;;;;;6154490;23;20362;-79
2022/01/18 10:09:12;;;;;;;4.90;3.00;;;;;;;;;;6154219;23;20010;-75
2022/01/18 10:11:58;;;;;;;3.50;1.92;;;;;;;;;;6154924;23;20077;-78
2022/01/18 10:14:29;;;;;;;9.07;4.68;;;;;;;;;;6155184;23;20033;-82
2022/01/18 10:16:57;;;;;;;5.18;2.40;;;;;;;;;;6154705;23;20006;-80
2022/01/18 10:19:35;;;;;;;10.57;2.28;;;;;;;;;;6155565;23;20077;-81
2022/01/18 10:22:14;;;;;;;5.80;2.72;;;;;;;;;;6155423;23;20307;-81
2022/01/18 10:24:41;;;;;;;4.93;2.40;;;;;;;;;;6154875;23;20000;-77
2022/01/18 10:27:13;;;;;;;7.28;3.97;;;;;;;;;;6154272;23;20287;-79
2022/01/18 10:29:43;;;;;;;5.45;1.70;;;;;;;;;;6155262;23;20009;-81
2022/01/18 10:32:16;;;;;;;9.82;1.83;;;;;;;;;;6154684;23;20344;-81
2022/01/18 10:35:27;;;;;;;3.92;1.70;;;;;;;;;;6154650;23;20317;-78
2022/01/18 10:37:36;;;;;;;9.90;4.30;;;;;;;;;;6146130;23;20481;-79
2022/01/18 10:40:02;;;;;;;5.30;3.05;;;;;;;;;;6154196;23;20018;-80
2022/01/18 10:42:35;;;;;;;8.20;2.88;;;;;;;;;;6128477;23;20114;-79
2022/01/18 10:45:12;;;;;;;4.40;2.22;;;;;;;;;;6128385;23;20024;-81
2022/01/18 10:47:47;;;;;;;5.57;2.30;;;;;;;;;;6154758;23;20453;-77
2022/01/18 10:50:15;;;;;;;10.05;3.10;;;;;;;;;;6153630;23;20029;-80
2022/01/18 10:52:43;;;;;;;4.13;2.05;;;;;;;;;;6154863;23;20005;-78
2022/01/18 10:55:28;;;;;;;7.70;3.22;;;;;;;;;;6154488;23;20017;-78
2022/01/18 10:57:54;;;;;;;5.35;2.22;;;;;;;;;;6153530;23;20005;-70
2022/01/18 11:00:22;;;;;;;6.80;4.10;;;;;;;;;;6154061;23;20008;-78
2022/01/18 11:02:52;;;;;;;3.65;2.13;;;;;;;;;;6154259;23;20010;-79
2022/01/18 11:05:37;;;;;;;8.82;4.15;;;;;;;;;;6154422;23;20035;-80
2022/01/18 11:08:04;;;;;;;7.57;3.47;;;;;;;;;;6153873;23;20005;-78
2022/01/18 11:10:32;;;;;;;6.75;3.38;;;;;;;;;;6154018;23;20010;-77
2022/01/18 11:15:50;;;;;;;7.43;4.65;;;;;;;;;;6153879;23;20063;-84
2022/01/18 11:18:25;;;;;;;10.30;5.60;;;;;;;;;;6154309;23;20005;-79
2022/01/18 11:20:51;;;;;;;;;;;;;;;;;;6154289;23;20329;-81
2022/01/18 11:26:54;;;;;;;10.77;5.38;;;;;;;;;;6032734;23;20011;-78
2022/01/18 11:32:09;;;;;;;6.82;3.85;;;;;;;;;;5991811;23;20012;-79
2022/01/18 11:34:57;;;;;;;6.43;3.15;;;;;;;;;;6035416;23;20095;-79
2022/01/18 11:37:29;;;;;;;7.10;3.92;;;;;;;;;;6070166;23;20009;-81
2022/01/18 11:40:21;;;;;;;3.33;1.80;;;;;;;;;;6154272;23;20013;-80
2022/01/18 11:43:04;;;;;;;6.90;2.88;;;;;;;;;;6154052;23;20005;-79
2022/01/18 11:45:34;;;;;;;14.00;8.75;;;;;;;;;;6154656;23;20375;-80
2022/01/18 11:48:11;;;;;;;11.50;6.40;;;;;;;;;;6153926;23;20084;-79
2022/01/18 11:50:41;;;;;;;10.07;5.65;;;;;;;;;;6154297;23;20013;-79
2022/01/18 11:56:36;;;;;;;19.60;8.02;;;;;;;;;;6131583;23;20029;-80
2022/01/18 11:59:21;;;;;;;11.90;5.93;;;;;;;;;;6153669;23;20065;-80
2022/01/18 12:01:58;;;;;;;13.55;6.30;;;;;;;;;;6153451;23;20001;-79
2022/01/18 12:07:12;;;;;;;12.15;6.40;;;;;;;;;;6153134;23;20017;-80
2022/01/18 12:09:48;;;;;;;13.05;6.28;;;;;;;;;;6153975;23;20088;-79
2022/01/18 12:12:34;;;;;;;21.17;10.13;;;;;;;;;;6127363;23;20013;-80
2022/01/18 12:15:00;;;;;;;7.00;2.92;;;;;;;;;;6153677;23;20006;-77
2022/01/18 12:17:26;;;;;;;13.02;6.80;;;;;;;;;;6152839;23;20021;-76
2022/01/18 12:19:52;;;;;;;157.40;47.63;;;;;;;;;;6153506;23;20318;-78
2022/01/18 12:22:40;;;;;;;60.95;19.25;;;;;;;;;;6153388;23;20418;-79
2022/01/18 12:25:28;;;;;;;33.10;15.10;;;;;;;;;;6153853;23;20002;-78
2022/01/18 12:27:56;;;;;;;8.60;4.85;;;;;;;;;;6152781;23;20084;-79
2022/01/18 12:33:16;;;;;;;7.68;3.67;;;;;;;;;;6152839;23;20076;-77
2022/01/18 12:35:42;;;;;;;21.55;10.88;;;;;;;;;;6152467;23;20016;-82
2022/01/18 12:38:10;;;;;;;18.60;9.48;;;;;;;;;;6152833;23;20329;-77
2022/01/18 12:40:45;;;;;;;13.57;5.88;;;;;;;;;;6153236;23;20018;-77
2022/01/18 12:45:39;;;;;;;15.80;6.55;;;;;;;;;;6162566;23;20100;-76
2022/01/18 12:48:10;;;;;;;10.52;5.28;;;;;;;;;;6151596;23;20009;-76
2022/01/18 12:50:36;;;;;;;18.25;10.15;;;;;;;;;;6153398;23;20072;-79
2022/01/18 12:53:11;;;;;;;10.65;6.53;;;;;;;;;;6152289;23;20661;-78
2022/01/18 12:55:42;;;;;;;14.00;7.07;;;;;;;;;;6151963;23;20037;-76
2022/01/18 12:58:25;;;;;;;7.25;4.40;;;;;;;;;;6153300;23;20001;-76
2022/01/18 13:00:54;;;;;;;8.18;5.03;;;;;;;;;;6152640;23;20009;-77
2022/01/18 13:03:33;;;;;;;14.82;9.93;;;;;;;;;;6125899;23;20064;-76
2022/01/18 13:08:48;;;;;;;12.48;7.60;;;;;;;;;;6153444;23;20089;-78
2022/01/18 13:11:33;;;;;;;8.27;4.38;;;;;;;;;;6153199;23;20060;-81
2022/01/18 13:14:02;;;;;;;13.05;7.53;;;;;;;;;;6153432;23;20013;-76
2022/01/18 13:30:05;;;;;;;14.65;10.32;;;;;;;;;;6154987;23;20076;-78
2022/01/18 13:32:34;;;;;;;15.57;10.30;;;;;;;;;;6154429;23;20374;-76
2022/01/18 13:35:03;;;;;;;12.85;7.40;;;;;;;;;;6129082;23;20150;-76
2022/01/18 13:37:33;;;;;;;15.40;10.38;;;;;;;;;;6154220;23;20322;-76
2022/01/18 13:40:02;;;;;;;17.50;10.25;;;;;;;;;;6162000;23;20017;-80
2022/01/18 13:42:34;;;;;;;10.95;6.45;;;;;;;;;;6184554;23;20005;-79
2022/01/18 13:45:16;;;;;;;15.93;8.60;;;;;;;;;;6158820;23;20027;-78
2022/01/18 13:47:44;;;;;;;8.85;4.53;;;;;;;;;;6184159;23;20059;-77
2022/01/18 13:50:29;;;;;;;16.77;11.02;;;;;;;;;;6185043;23;20092;-77
2022/01/18 13:52:55;;;;;;;;;;;;;;;;;;6184550;23;20008;-78
2022/01/18 13:55:28;;;;;;;7.75;4.32;;;;;;;;;;6184851;23;20296;-76
2022/01/18 13:57:58;;;;;;;14.50;8.00;;;;;;;;;;6184707;23;20112;-78
2022/01/18 14:00:25;;;;;;;9.85;6.32;;;;;;;;;;6184498;23;19997;-76
2022/01/18 14:02:51;;;;;;;16.02;10.27;;;;;;;;;;6183888;23;20730;-77
2022/01/18 14:05:20;;;;;;;8.85;4.47;;;;;;;;;;6184842;23;20008;-75
2022/01/18 14:07:46;;;;;;;7.20;3.58;;;;;;;;;;6184445;23;20075;-75
2022/01/18 14:10:15;;;;;;;18.58;11.25;;;;;;;;;;6184721;23;20432;-74
2022/01/18 14:12:41;;;;;;;11.43;6.68;;;;;;;;;;6184375;23;20420;-76
2022/01/18 14:15:07;;;;;;;5.85;2.53;;;;;;;;;;6184771;23;20013;-75
2022/01/18 14:17:34;;;;;;;9.35;4.82;;;;;;;;;;6184336;23;20093;-74
2022/01/18 14:20:05;;;;;;;8.23;5.28;;;;;;;;;;6184193;23;20001;-75
2022/01/18 14:22:34;;;;;;;14.25;7.75;;;;;;;;;;6184561;23;20005;-77
2022/01/18 14:25:04;;;;;;;16.77;9.35;;;;;;;;;;6184445;23;20512;-76
2022/01/18 14:27:43;;;;;;;13.95;8.40;;;;;;;;;;6184046;23;20086;-78
2022/01/18 14:30:19;;;;;;;10.23;6.68;;;;;;;;;;6183387;23;20041;-76
2022/01/18 14:32:45;;;;;;;10.65;6.70;;;;;;;;;;6184074;23;20005;-77
2022/01/18 14:35:38;;;;;;;12.05;6.55;;;;;;;;;;6157396;23;20017;-81
2022/01/18 14:38:09;;;;;;;11.55;6.75;;;;;;;;;;6180140;23;20009;-77
2022/01/18 14:40:37;;;;;;;12.38;5.88;;;;;;;;;;6169253;23;20056;-78
2022/01/18 14:43:12;;;;;;;10.63;5.70;;;;;;;;;;6154357;23;20088;-77
2022/01/18 14:48:32;;;;;;;15.00;8.93;;;;;;;;;;6154459;23;20301;-78
2022/01/18 14:50:59;;;;;;;16.13;9.52;;;;;;;;;;6153922;23;20020;-76
2022/01/18 14:53:25;;;;;;;15.00;8.25;;;;;;;;;;6154415;23;20036;-77
2022/01/18 14:55:52;;;;;;;20.20;12.30;;;;;;;;;;6154220;23;20006;-76
2022/01/18 14:58:18;;;;;;;13.23;7.68;;;;;;;;;;6155293;23;20013;-76
2022/01/18 15:00:45;;;;;;;18.00;10.98;;;;;;;;;;6154971;23;20001;-77
2022/01/18 15:03:11;;;;;;;19.10;11.45;;;;;;;;;;6155371;23;20006;-76
2022/01/18 15:05:37;;;;;;;21.27;12.75;;;;;;;;;;6155754;23;20040;-76
2022/01/18 15:08:04;;;;;;;14.10;9.40;;;;;;;;;;6154982;23;20005;-76
2022/01/18 15:10:31;;;;;;;25.38;13.65;;;;;;;;;;6155693;23;20002;-77
2022/01/18 15:12:57;;;;;;;19.88;11.82;;;;;;;;;;6155278;23;20052;-76
2022/01/18 15:15:25;;;;;;;20.10;10.52;;;;;;;;;;6155187;23;20337;-76
2022/01/18 15:17:51;;;;;;;16.70;8.85;;;;;;;;;;6155242;23;20004;-78
2022/01/18 15:20:18;;;;;;;22.10;12.85;;;;;;;;;;6155325;23;19997;-77
2022/01/18 15:22:44;;;;;;;13.95;8.18;;;;;;;;;;6155271;23;20005;-77
2022/01/18 15:25:11;;;;;;;13.60;7.80;;;;;;;;;;6154689;23;20060;-76
2022/01/18 15:27:37;;;;;;;15.77;8.45;;;;;;;;;;6155327;23;20005;-68
2022/01/18 15:30:10;;;;;;;11.30;7.22;;;;;;;;;;6153656;23;20012;-77
2022/01/18 15:32:37;;;;;;;14.82;8.85;;;;;;;;;;6128773;23;20307;-77
2022/01/18 15:35:03;;;;;;;17.83;8.15;;;;;;;;;;6155220;23;20311;-77
2022/01/18 15:37:29;;;;;;;14.45;8.93;;;;;;;;;;6154636;23;20068;-76
2022/01/18 15:39:59;;;;;;;16.10;10.10;;;;;;;;;;6154597;23;20013;-76
2022/01/18 15:42:29;;;;;;;17.52;10.45;;;;;;;;;;6155464;23;20084;-77
2022/01/18 15:44:55;;;;;;;17.10;10.23;;;;;;;;;;6155121;23;20448;-77
2022/01/18 15:47:21;;;;;;;16.13;10.50;;;;;;;;;;6155090;23;20495;-77
2022/01/18 15:49:47;;;;;;;17.77;12.00;;;;;;;;;;6154508;23;20016;-77
2022/01/18 15:52:13;;;;;;;18.65;12.07;;;;;;;;;;6154711;23;20001;-78
2022/01/18 15:54:42;;;;;;;18.27;12.20;;;;;;;;;;6155071;23;20018;-78
2022/01/18 15:57:11;;;;;;;17.10;11.73;;;;;;;;;;6154789;23;20013;-76
2022/01/18 15:59:40;;;;;;;17.60;11.60;;;;;;;;;;6154500;23;20005;-77
2022/01/18 16:02:06;;;;;;;12.88;8.93;;;;;;;;;;6154375;23;20436;-77
2022/01/18 16:04:32;;;;;;;15.88;8.68;;;;;;;;;;6128650;23;20036;-77
2022/01/18 16:06:59;;;;;;;12.48;8.35;;;;;;;;;;6154343;23;20080;-76
2022/01/18 16:09:25;;;;;;;12.63;8.00;;;;;;;;;;6154697;23;20080;-77
2022/01/18 16:11:52;;;;;;;14.52;8.63;;;;;;;;;;6154612;23;20002;-77
2022/01/18 16:14:18;;;;;;;16.35;9.88;;;;;;;;;;6154217;23;20002;-77
2022/01/18 16:16:44;;;;;;;14.13;7.60;;;;;;;;;;6154833;23;20001;-77
2022/01/18 16:19:13;;;;;;;12.07;7.60;;;;;;;;;;6154824;23;20395;-76
2022/01/18 16:21:40;;;;;;;11.27;7.45;;;;;;;;;;6155320;23;20084;-77
2022/01/18 16:24:09;;;;;;;13.63;7.97;;;;;;;;;;6154446;23;20393;-76
2022/01/18 16:26:35;;;;;;;17.00;9.35;;;;;;;;;;6154048;23;20052;-76
2022/01/18 16:29:01;;;;;;;16.48;10.23;;;;;;;;;;6154160;23;20473;-76
2022/01/18 16:31:28;;;;;;;19.25;10.40;;;;;;;;;;6154095;23;20053;-76
2022/01/18 16:33:54;;;;;;;21.13;12.18;;;;;;;;;;6128225;23;20010;-76
2022/01/18 16:36:20;;;;;;;26.15;14.68;;;;;;;;;;6151398;23;20010;-76
2022/01/18 16:38:47;;;;;;;31.63;19.10;;;;;;;;;;6154534;23;20441;-76
2022/01/18 16:41:14;;;;;;;29.85;17.33;;;;;;;;;;6154171;23;20141;-76